Time;durP1;ratioP1;P1;durP2;ratioP2;P2;SDS_P1;SDS_P2;PMS_P1;PMS_P2;Temp;Humidity;BMP_temperature;BMP_pressure;BME280_temperature;BME280_humidity;BME280_pressure;Samples;Min_cycle;Max_cycle;Signal;HPM_P1;HPM_P2
2022/11/14 00:00:05;;;;;;;11.23;7.53;;;5.10;36.20;;;;;;5058282;28;20209;-60
2022/11/14 00:02:32;;;;;;;10.00;7.93;;;5.10;40.20;;;;;;5058182;28;20316;-61
2022/11/14 00:04:58;;;;;;;13.27;8.20;;;5.10;40.80;;;;;;5058174;28;20448;-61
2022/11/14 00:07:25;;;;;;;13.23;8.10;;;5.10;40.20;;;;;;5057891;28;20201;-59
2022/11/14 00:09:52;;;;;;;11.83;8.73;;;5.00;44.00;;;;;;5058171;28;20588;-60
2022/11/14 00:12:18;;;;;;;12.77;8.47;;;4.90;60.30;;;;;;5058101;28;20472;-60
2022/11/14 00:14:46;;;;;;;12.30;8.10;;;4.90;66.80;;;;;;5058245;28;20960;-61
2022/11/14 00:17:13;;;;;;;11.03;8.27;;;4.90;78.00;;;;;;5058094;28;20230;-61
2022/11/14 00:19:40;;;;;;;9.77;7.97;;;4.90;85.60;;;;;;5057934;28;20463;-60
2022/11/14 00:22:06;;;;;;;10.10;7.80;;;4.80;85.10;;;;;;5058037;28;20498;-60
2022/11/14 00:24:33;;;;;;;11.83;8.67;;;4.80;93.60;;;;;;5057899;28;20459;-61
2022/11/14 00:27:00;;;;;;;13.20;9.17;;;4.70;99.90;;;;;;5057555;28;20448;-60
2022/11/14 00:29:26;;;;;;;12.40;9.83;;;4.70;99.90;;;;;;5058210;28;20501;-60
2022/11/14 00:31:54;;;;;;;13.20;8.97;;;4.60;99.90;;;;;;5057947;28;20820;-61
2022/11/14 00:34:21;;;;;;;14.70;8.53;;;4.60;99.90;;;;;;5057762;28;20997;-61
2022/11/14 00:36:48;;;;;;;13.23;9.13;;;4.60;99.90;;;;;;5057486;28;20510;-59
2022/11/14 00:39:15;;;;;;;12.67;9.37;;;4.60;99.90;;;;;;5057772;28;20456;-60
2022/11/14 00:41:42;;;;;;;11.37;7.80;;;4.60;99.90;;;;;;5057889;28;20847;-60
2022/11/14 00:44:10;;;;;;;14.40;8.90;;;4.50;99.90;;;;;;5057662;28;20472;-59
2022/11/14 00:46:37;;;;;;;15.13;9.10;;;4.50;99.90;;;;;;5057660;28;20452;-60
2022/11/14 00:49:05;;;;;;;11.40;9.27;;;4.40;99.90;;;;;;5057733;28;20816;-61
2022/11/14 00:51:32;;;;;;;11.97;8.83;;;4.40;99.90;;;;;;5057691;28;20448;-60
2022/11/14 00:53:58;;;;;;;14.10;9.27;;;4.40;99.90;;;;;;5054571;28;20490;-60
2022/11/14 00:56:25;;;;;;;12.07;8.93;;;4.30;99.90;;;;;;5054388;28;20826;-58
2022/11/14 00:58:52;;;;;;;15.80;9.70;;;4.30;99.90;;;;;;5054464;28;20804;-60
2022/11/14 01:01:18;;;;;;;11.90;9.60;;;4.30;99.90;;;;;;5054558;28;20459;-58
2022/11/14 01:03:47;;;;;;;13.53;9.37;;;4.20;99.90;;;;;;5054295;28;20891;-60
2022/11/14 01:06:16;;;;;;;16.37;10.00;;;4.20;99.90;;;;;;5054066;28;20542;-60
2022/11/14 01:08:43;;;;;;;14.57;10.00;;;4.10;99.90;;;;;;5054404;28;20456;-60
2022/11/14 01:11:11;;;;;;;11.70;8.57;;;4.10;99.90;;;;;;5054189;28;20457;-59
2022/11/14 01:13:39;;;;;;;12.57;8.97;;;4.10;99.90;;;;;;5054270;28;20464;-60
2022/11/14 01:16:07;;;;;;;11.50;8.93;;;4.10;99.90;;;;;;5054062;28;20479;-60
2022/11/14 01:18:34;;;;;;;15.60;9.47;;;4.10;99.90;;;;;;5054193;28;20455;-60
2022/11/14 01:21:04;;;;;;;11.97;9.30;;;4.10;99.90;;;;;;5054584;28;20453;-60
2022/11/14 01:23:32;;;;;;;11.90;9.37;;;4.00;99.90;;;;;;5053983;28;20490;-60
2022/11/14 01:26:03;;;;;;;12.80;8.53;;;4.00;99.90;;;;;;5054167;28;21001;-60
2022/11/14 01:28:29;;;;;;;11.27;9.00;;;4.00;99.90;;;;;;5054078;28;20891;-59
2022/11/14 01:30:56;;;;;;;12.77;9.03;;;4.00;99.90;;;;;;5054154;28;20452;-60
2022/11/14 01:33:23;;;;;;;14.83;9.10;;;3.90;99.90;;;;;;5053656;28;20476;-60
2022/11/14 01:35:49;;;;;;;12.27;8.77;;;3.90;99.90;;;;;;5053926;28;20444;-59
2022/11/14 01:38:16;;;;;;;13.53;9.30;;;3.80;99.90;;;;;;5053471;28;20534;-60
2022/11/14 01:40:45;;;;;;;12.57;9.00;;;3.80;99.90;;;;;;5053548;28;20460;-59
2022/11/14 01:43:31;;;;;;;13.17;9.00;;;3.80;99.90;;;;;;5053662;28;20472;-60
2022/11/14 01:46:01;;;;;;;13.27;9.23;;;3.80;99.90;;;;;;5053396;28;20454;-59
2022/11/14 01:48:33;;;;;;;13.60;9.83;;;3.80;99.90;;;;;;5053985;28;20853;-60
2022/11/14 01:51:02;;;;;;;13.73;9.83;;;3.80;99.90;;;;;;5053517;28;20455;-61
2022/11/14 01:53:30;;;;;;;11.17;8.97;;;3.80;99.90;;;;;;5053450;28;20472;-60
2022/11/14 01:56:01;;;;;;;13.37;9.13;;;3.80;99.90;;;;;;5053271;28;20506;-59
2022/11/14 01:58:29;;;;;;;11.30;8.87;;;3.90;99.90;;;;;;5053747;28;20503;-60
2022/11/14 02:00:57;;;;;;;11.10;8.17;;;3.90;99.90;;;;;;5053388;28;20448;-57
2022/11/14 02:03:24;;;;;;;16.37;9.37;;;3.80;99.90;;;;;;5053373;28;20472;-59
2022/11/14 02:05:52;;;;;;;11.93;8.87;;;3.70;99.90;;;;;;5052983;28;20451;-55
2022/11/14 02:08:19;;;;;;;12.00;8.33;;;3.70;99.90;;;;;;5053175;28;20444;-60
2022/11/14 02:10:45;;;;;;;11.43;8.80;;;3.50;99.90;;;;;;5053063;28;20448;-60
2022/11/14 02:13:14;;;;;;;13.70;9.30;;;3.40;99.90;;;;;;5053185;28;20510;-56
2022/11/14 02:15:41;;;;;;;13.17;8.93;;;3.40;99.90;;;;;;5053072;28;20509;-58
2022/11/14 02:18:07;;;;;;;12.43;9.07;;;3.40;99.90;;;;;;5052832;28;20484;-60
2022/11/14 02:20:42;;;;;;;12.07;9.40;;;3.40;99.90;;;;;;5052812;28;20448;-60
2022/11/14 02:23:09;;;;;;;12.73;9.27;;;3.40;99.90;;;;;;5052838;28;20559;-56
2022/11/14 02:25:36;;;;;;;11.77;8.90;;;3.50;99.90;;;;;;5052977;28;20856;-56
2022/11/14 02:28:04;;;;;;;10.97;8.30;;;3.50;99.90;;;;;;5052673;28;20509;-60
2022/11/14 02:30:30;;;;;;;11.30;8.77;;;3.50;99.90;;;;;;5052844;28;20487;-60
2022/11/14 02:32:57;;;;;;;10.63;8.37;;;3.60;99.90;;;;;;5052622;28;20464;-59
2022/11/14 02:35:24;;;;;;;12.73;8.53;;;3.60;99.90;;;;;;5052662;28;20533;-60
2022/11/14 02:37:52;;;;;;;12.10;8.43;;;3.60;99.90;;;;;;5052273;28;20542;-60
2022/11/14 02:40:18;;;;;;;12.37;8.20;;;3.50;99.90;;;;;;5052724;28;20455;-60
2022/11/14 02:42:45;;;;;;;12.40;7.87;;;3.50;99.90;;;;;;5052371;28;20479;-60
2022/11/14 02:45:12;;;;;;;11.40;7.93;;;3.60;99.90;;;;;;5052481;28;20447;-60
2022/11/14 02:47:39;;;;;;;12.07;8.90;;;3.60;99.90;;;;;;5052233;28;20447;-57
2022/11/14 02:50:06;;;;;;;11.97;8.33;;;3.70;99.90;;;;;;5052266;28;20452;-60
2022/11/14 02:52:33;;;;;;;13.07;9.20;;;3.70;99.90;;;;;;5052292;28;20479;-59
2022/11/14 02:55:01;;;;;;;12.30;8.50;;;3.80;99.90;;;;;;5052267;28;20456;-60
2022/11/14 02:57:28;;;;;;;14.90;8.83;;;3.80;99.90;;;;;;5052155;28;20480;-59
2022/11/14 02:59:54;;;;;;;12.57;8.53;;;3.90;99.90;;;;;;5052258;28;20506;-61
2022/11/14 03:02:21;;;;;;;12.07;8.57;;;4.00;99.90;;;;;;5052152;28;20893;-60
2022/11/14 03:04:47;;;;;;;11.97;8.60;;;4.10;99.90;;;;;;5051966;28;21012;-60
2022/11/14 03:07:14;;;;;;;13.53;7.70;;;4.10;99.90;;;;;;5051808;28;20934;-59
2022/11/14 03:09:41;;;;;;;11.47;7.77;;;4.10;99.90;;;;;;5051962;28;20950;-60
2022/11/14 03:12:09;;;;;;;10.43;7.23;;;4.20;99.90;;;;;;5052026;28;20497;-58
2022/11/14 03:14:36;;;;;;;10.23;7.50;;;4.20;99.90;;;;;;5051897;28;20457;-59
2022/11/14 03:17:02;;;;;;;9.10;5.97;;;4.20;99.90;;;;;;5051096;28;20487;-59
2022/11/14 03:19:29;;;;;;;9.20;6.83;;;4.30;99.90;;;;;;5051833;28;20455;-60
2022/11/14 03:21:56;;;;;;;9.00;6.00;;;4.30;99.90;;;;;;5051962;28;20448;-59
2022/11/14 03:24:22;;;;;;;10.23;6.33;;;4.40;99.90;;;;;;5052054;28;20461;-60
2022/11/14 03:26:49;;;;;;;8.23;5.97;;;4.50;99.90;;;;;;5051680;28;20442;-60
2022/11/14 03:29:17;;;;;;;7.87;5.70;;;4.50;99.90;;;;;;5051771;28;20456;-60
2022/11/14 03:31:44;;;;;;;8.33;6.17;;;4.60;99.90;;;;;;5051770;28;20444;-60
2022/11/14 03:34:11;;;;;;;8.13;6.30;;;4.70;99.90;;;;;;5051607;28;20468;-59
2022/11/14 03:36:38;;;;;;;12.43;7.03;;;4.60;99.90;;;;;;5051396;28;20456;-60
2022/11/14 03:39:05;;;;;;;10.77;6.80;;;4.40;99.90;;;;;;5051790;28;20456;-60
2022/11/14 03:41:32;;;;;;;9.93;7.77;;;4.40;99.90;;;;;;5051640;28;20471;-61
2022/11/14 03:43:58;;;;;;;10.53;7.90;;;4.40;99.90;;;;;;5051659;28;20480;-60
2022/11/14 03:46:27;;;;;;;12.93;7.73;;;4.20;99.90;;;;;;5051344;28;20452;-61
2022/11/14 03:48:53;;;;;;;12.90;8.23;;;4.00;99.90;;;;;;5051843;28;21072;-60
2022/11/14 03:51:20;;;;;;;11.70;8.10;;;3.90;99.90;;;;;;5051604;28;20523;-60
2022/11/14 03:53:46;;;;;;;12.10;8.07;;;3.90;99.90;;;;;;5051714;28;20472;-57
2022/11/14 03:56:13;;;;;;;10.10;8.47;;;3.80;99.90;;;;;;5051376;28;20518;-61
2022/11/14 03:58:40;;;;;;;12.87;9.73;;;3.80;99.90;;;;;;5051568;28;20514;-60
2022/11/14 04:01:07;;;;;;;11.83;8.23;;;3.70;99.90;;;;;;5051341;28;20459;-60
2022/11/14 04:03:35;;;;;;;11.20;8.20;;;3.70;99.90;;;;;;5051700;28;20494;-60
2022/11/14 04:06:02;;;;;;;13.87;8.43;;;3.60;99.90;;;;;;5051236;28;20826;-60
2022/11/14 04:08:28;;;;;;;11.30;8.43;;;3.50;99.90;;;;;;5051506;28;20444;-61
2022/11/14 04:10:55;;;;;;;12.03;8.07;;;3.40;99.90;;;;;;5051390;28;21029;-59
2022/11/14 04:13:21;;;;;;;12.40;8.23;;;3.40;99.90;;;;;;5051136;28;20467;-60
2022/11/14 04:15:54;;;;;;;12.60;8.40;;;3.30;99.90;;;;;;5051172;28;20826;-61
2022/11/14 04:18:21;;;;;;;12.70;8.23;;;3.30;99.90;;;;;;5051472;28;20484;-58
2022/11/14 04:20:49;;;;;;;17.67;8.33;;;3.10;99.90;;;;;;5051313;28;20448;-60
2022/11/14 04:23:16;;;;;;;14.43;9.30;;;3.10;99.90;;;;;;5051353;28;20521;-61
2022/11/14 04:25:45;;;;;;;15.17;9.87;;;3.00;99.90;;;;;;5051172;28;20447;-60
2022/11/14 04:28:12;;;;;;;14.70;9.83;;;3.00;99.90;;;;;;5051129;28;20447;-59
2022/11/14 04:30:39;;;;;;;13.93;9.23;;;2.90;99.90;;;;;;5055178;28;20458;-61
2022/11/14 04:33:06;;;;;;;16.90;10.30;;;2.90;99.90;;;;;;5055000;28;20476;-60
2022/11/14 04:35:32;;;;;;;15.10;10.17;;;2.80;99.90;;;;;;5054954;28;20450;-59
2022/11/14 04:38:00;;;;;;;12.30;9.47;;;2.70;99.90;;;;;;5054700;28;20479;-60
2022/11/14 04:40:27;;;;;;;19.77;11.23;;;2.70;99.90;;;;;;5055003;28;20452;-59
2022/11/14 04:42:54;;;;;;;16.00;10.83;;;2.60;99.90;;;;;;5054412;28;20541;-59
2022/11/14 04:45:21;;;;;;;14.63;9.90;;;2.60;99.90;;;;;;5054834;28;20458;-60
2022/11/14 04:47:48;;;;;;;16.27;10.23;;;2.50;99.90;;;;;;5054603;28;20474;-59
2022/11/14 04:50:14;;;;;;;17.37;10.33;;;2.60;99.90;;;;;;5054901;28;20444;-59
2022/11/14 04:52:41;;;;;;;14.47;9.90;;;2.70;99.90;;;;;;5054612;28;20478;-60
2022/11/14 04:55:10;;;;;;;15.37;10.30;;;2.70;99.90;;;;;;5054607;28;20452;-60
2022/11/14 04:57:36;;;;;;;12.37;9.47;;;2.70;99.90;;;;;;5054201;28;20488;-61
2022/11/14 05:00:04;;;;;;;14.97;9.37;;;2.70;99.90;;;;;;5054684;28;20497;-60
2022/11/14 05:02:31;;;;;;;14.90;8.60;;;2.80;99.90;;;;;;5054554;28;20472;-58
2022/11/14 05:04:58;;;;;;;15.40;9.43;;;2.90;99.90;;;;;;5054483;28;20540;-60
2022/11/14 05:07:25;;;;;;;17.87;8.77;;;3.00;99.90;;;;;;5054593;28;20799;-60
2022/11/14 05:09:52;;;;;;;13.07;9.20;;;3.20;99.90;;;;;;5054344;28;20873;-60
2022/11/14 05:12:19;;;;;;;15.53;8.43;;;3.30;99.90;;;;;;5054161;28;21076;-59
2022/11/14 05:14:46;;;;;;;14.27;8.93;;;3.40;99.90;;;;;;5054273;28;20452;-60
2022/11/14 05:17:13;;;;;;;13.17;8.60;;;3.50;99.90;;;;;;5053771;28;21008;-61
2022/11/14 05:19:39;;;;;;;15.90;9.60;;;3.80;99.90;;;;;;5054199;28;20466;-60
2022/11/14 05:22:06;;;;;;;16.57;9.70;;;4.10;99.90;;;;;;5053841;28;20985;-61
2022/11/14 05:24:33;;;;;;;13.30;9.37;;;4.20;99.90;;;;;;5054113;28;20444;-60
2022/11/14 05:26:59;;;;;;;16.13;8.97;;;4.50;99.90;;;;;;5053575;28;20448;-61
2022/11/14 05:29:27;;;;;;;17.53;9.23;;;4.70;99.90;;;;;;5054189;28;20502;-61
2022/11/14 05:31:54;;;;;;;13.93;8.90;;;4.90;99.90;;;;;;5053868;28;20268;-61
2022/11/14 05:34:21;;;;;;;12.10;8.43;;;5.20;99.90;;;;;;5053876;28;20360;-61
2022/11/14 05:36:47;;;;;;;12.43;9.10;;;5.40;99.90;;;;;;5052302;28;20776;-60
2022/11/14 05:39:14;;;;;;;12.97;8.50;;;5.70;99.90;;;;;;5053201;28;20228;-61
2022/11/14 05:41:41;;;;;;;11.90;8.33;;;5.90;94.70;;;;;;5053692;28;20220;-61
2022/11/14 05:44:08;;;;;;;12.23;6.97;;;6.10;86.50;;;;;;5053867;28;20228;-61
2022/11/14 05:46:36;;;;;;;13.23;7.43;;;6.30;66.20;;;;;;5053602;28;20205;-60
2022/11/14 05:49:03;;;;;;;11.37;7.20;;;6.40;49.80;;;;;;5054020;28;20262;-60
2022/11/14 05:51:29;;;;;;;10.30;6.73;;;6.60;29.90;;;;;;5035577;28;20575;-60
2022/11/14 05:53:56;;;;;;;12.43;7.40;;;6.60;20.80;;;;;;5032968;28;20231;-61
2022/11/14 05:56:23;;;;;;;11.83;7.63;;;6.70;14.70;;;;;;5033794;28;20206;-61
2022/11/14 05:58:49;;;;;;;9.97;6.80;;;6.70;8.40;;;;;;5033082;28;20232;-60
2022/11/14 06:01:18;;;;;;;9.93;6.80;;;6.80;3.10;;;;;;5033455;28;20213;-60
2022/11/14 06:03:47;;;;;;;10.67;6.60;;;7.00;1.00;;;;;;5033067;28;20226;-60
2022/11/14 06:06:16;;;;;;;10.40;7.07;;;7.00;1.00;;;;;;5032859;28;20210;-60
2022/11/14 06:08:44;;;;;;;11.13;6.80;;;7.00;1.00;;;;;;5032730;28;20209;-60
2022/11/14 06:11:12;;;;;;;11.27;6.63;;;7.10;1.00;;;;;;5033583;28;20206;-60
2022/11/14 06:13:39;;;;;;;9.90;6.63;;;7.20;1.00;;;;;;5032463;28;20226;-63
2022/11/14 06:16:08;;;;;;;8.87;6.53;;;7.30;1.00;;;;;;5033586;28;20685;-62
2022/11/14 06:18:36;;;;;;;11.73;6.43;;;7.30;1.00;;;;;;5032545;28;20225;-56
2022/11/14 06:21:07;;;;;;;10.60;6.83;;;7.40;1.00;;;;;;5032683;28;20743;-56
2022/11/14 06:23:34;;;;;;;9.97;6.80;;;7.40;1.00;;;;;;5032867;28;20230;-60
2022/11/14 06:26:01;;;;;;;11.03;7.17;;;7.40;1.00;;;;;;5032251;28;20206;-61
2022/11/14 06:28:28;;;;;;;11.23;6.77;;;7.40;1.00;;;;;;5032748;28;20213;-60
2022/11/14 06:30:57;;;;;;;11.20;6.93;;;7.40;1.00;;;;;;5032032;28;20254;-59
2022/11/14 06:33:24;;;;;;;10.43;6.70;;;7.30;1.00;;;;;;5032589;28;20321;-60
2022/11/14 06:35:51;;;;;;;12.83;6.90;;;7.30;1.00;;;;;;5032305;28;20264;-58
2022/11/14 06:38:19;;;;;;;12.10;7.00;;;7.20;1.00;;;;;;5032575;28;20230;-59
2022/11/14 06:40:45;;;;;;;15.17;6.97;;;7.20;1.00;;;;;;5031613;28;20267;-60
2022/11/14 06:43:12;;;;;;;10.13;6.97;;;7.20;1.00;;;;;;5032466;28;20240;-59
2022/11/14 06:45:39;;;;;;;10.63;7.23;;;7.30;1.00;;;;;;5031864;28;20210;-58
2022/11/14 06:48:06;;;;;;;9.90;7.03;;;7.20;1.00;;;;;;5032253;28;20218;-62
2022/11/14 06:50:33;;;;;;;10.80;6.20;;;7.20;1.00;;;;;;5032022;28;20210;-64
2022/11/14 06:53:00;;;;;;;12.70;7.53;;;7.30;1.00;;;;;;5031632;28;20288;-63
2022/11/14 06:55:28;;;;;;;15.13;7.80;;;7.30;1.00;;;;;;5024367;28;20213;-62
2022/11/14 06:57:55;;;;;;;15.87;7.67;;;7.30;1.00;;;;;;5051269;28;20233;-62
2022/11/14 07:00:22;;;;;;;13.53;8.03;;;7.30;1.00;;;;;;5051724;28;20210;-62
2022/11/14 07:02:49;;;;;;;12.30;7.20;;;7.30;1.00;;;;;;5051174;28;20313;-61
2022/11/14 07:05:16;;;;;;;11.57;7.83;;;7.30;1.00;;;;;;5051562;28;20209;-62
2022/11/14 07:07:42;;;;;;;13.97;8.67;;;7.20;1.00;;;;;;5047252;28;20214;-61
2022/11/14 07:10:10;;;;;;;13.67;8.30;;;7.20;1.00;;;;;;5031685;28;20598;-62
2022/11/14 07:12:38;;;;;;;22.87;10.17;;;7.20;1.00;;;;;;5031215;28;20237;-62
2022/11/14 07:15:05;;;;;;;16.80;8.93;;;7.20;1.00;;;;;;5031324;28;20564;-62
2022/11/14 07:17:34;;;;;;;13.33;8.13;;;7.20;1.00;;;;;;5031746;28;20214;-64
2022/11/14 07:20:01;;;;;;;17.80;9.40;;;7.20;1.00;;;;;;5030908;28;20288;-64
2022/11/14 07:22:28;;;;;;;11.77;7.77;;;7.20;1.00;;;;;;5031199;28;20244;-63
2022/11/14 07:24:54;;;;;;;12.80;8.40;;;7.30;1.00;;;;;;5030787;28;20212;-64
2022/11/14 07:27:21;;;;;;;13.37;8.40;;;7.30;1.00;;;;;;5030732;28;20216;-64
2022/11/14 07:29:49;;;;;;;12.57;8.00;;;7.30;1.00;;;;;;5031179;28;20628;-64
2022/11/14 07:32:16;;;;;;;11.73;7.43;;;7.30;1.00;;;;;;5031349;28;20761;-62
2022/11/14 07:34:42;;;;;;;13.17;8.63;;;7.30;1.00;;;;;;5031033;28;20213;-64
2022/11/14 07:37:09;;;;;;;13.43;8.70;;;7.20;1.00;;;;;;5030899;28;20214;-64
2022/11/14 07:39:36;;;;;;;16.50;8.80;;;7.30;1.00;;;;;;5031363;28;20273;-63
2022/11/14 07:42:03;;;;;;;10.97;7.83;;;7.30;1.00;;;;;;5030505;28;20221;-66
2022/11/14 07:44:29;;;;;;;14.20;9.17;;;7.40;1.00;;;;;;5031627;28;20263;-60
2022/11/14 07:46:57;;;;;;;14.00;9.03;;;7.40;1.00;;;;;;5030570;28;20214;-60
2022/11/14 07:49:24;;;;;;;14.53;8.63;;;7.40;1.00;;;;;;5031506;28;20209;-62
2022/11/14 07:51:50;;;;;;;11.97;7.93;;;7.40;1.00;;;;;;5030705;28;20202;-62
2022/11/14 07:54:17;;;;;;;17.23;8.77;;;7.40;1.00;;;;;;5030900;28;20227;-62
2022/11/14 07:56:44;;;;;;;13.17;8.57;;;7.40;1.00;;;;;;5031112;28;20225;-62
2022/11/14 07:59:11;;;;;;;17.17;9.97;;;7.50;1.00;;;;;;5030571;28;20237;-61
2022/11/14 08:01:37;;;;;;;14.63;9.53;;;7.50;1.00;;;;;;5031116;28;20237;-62
2022/11/14 08:04:06;;;;;;;13.70;8.90;;;7.50;1.00;;;;;;5033517;28;20272;-63
2022/11/14 08:06:32;;;;;;;13.37;8.80;;;7.50;1.00;;;;;;5034722;28;20210;-62
2022/11/14 08:08:59;;;;;;;13.97;8.93;;;7.60;1.00;;;;;;5034464;28;20202;-62
2022/11/14 08:14:07;;;;;;;13.50;8.67;;;7.70;1.00;;;;;;5047270;28;20275;-62
2022/11/14 08:16:33;;;;;;;14.50;8.90;;;7.70;1.00;;;;;;5054435;28;20213;-62
2022/11/14 08:19:00;;;;;;;15.07;9.33;;;7.70;1.00;;;;;;5054638;28;20217;-62
2022/11/14 08:21:28;;;;;;;13.93;8.43;;;7.80;1.00;;;;;;5036991;28;20256;-61
2022/11/14 08:23:55;;;;;;;25.83;10.07;;;7.80;1.00;;;;;;5034668;28;20233;-62
2022/11/14 08:26:21;;;;;;;14.37;9.17;;;7.80;1.00;;;;;;5033822;28;20708;-61
2022/11/14 08:28:51;;;;;;;14.47;9.73;;;7.80;1.00;;;;;;5034331;28;20202;-62
2022/11/14 08:31:18;;;;;;;16.20;10.20;;;7.80;1.00;;;;;;5034282;28;20210;-61
2022/11/14 08:33:45;;;;;;;22.53;9.93;;;7.80;1.00;;;;;;5034837;28;20583;-62
2022/11/14 08:36:11;;;;;;;14.17;9.23;;;7.80;1.00;;;;;;5033511;28;20213;-61
2022/11/14 08:38:39;;;;;;;16.43;10.47;;;7.90;1.00;;;;;;5034159;28;20222;-60
2022/11/14 08:41:06;;;;;;;14.87;9.70;;;7.90;1.00;;;;;;5034433;28;20221;-62
2022/11/14 08:43:33;;;;;;;16.30;9.43;;;7.90;1.00;;;;;;5034062;28;20234;-61
2022/11/14 08:46:00;;;;;;;15.37;9.53;;;7.90;1.00;;;;;;5033238;28;20569;-63
2022/11/14 08:48:27;;;;;;;16.97;10.57;;;7.90;1.00;;;;;;5033473;28;20206;-62
2022/11/14 08:50:54;;;;;;;17.97;10.80;;;7.90;1.00;;;;;;5034144;28;20211;-64
2022/11/14 08:53:21;;;;;;;19.20;11.87;;;7.90;1.00;;;;;;5033492;28;20263;-63
2022/11/14 08:55:49;;;;;;;18.90;11.27;;;7.90;1.00;;;;;;5034612;28;20211;-62
2022/11/14 08:58:16;;;;;;;14.00;9.87;;;8.00;1.00;;;;;;5034440;28;20211;-62
2022/11/14 09:00:42;;;;;;;20.27;10.87;;;8.10;1.00;;;;;;5033910;28;20696;-62
2022/11/14 09:03:10;;;;;;;17.47;10.40;;;8.20;1.00;;;;;;5034054;28;20600;-62
2022/11/14 09:05:37;;;;;;;22.13;11.30;;;8.20;1.00;;;;;;5033283;28;20662;-60
2022/11/14 09:08:04;;;;;;;17.47;10.77;;;8.30;1.00;;;;;;5033635;28;20198;-62
2022/11/14 09:10:31;;;;;;;20.37;12.00;;;8.30;1.00;;;;;;5033434;28;20202;-60
2022/11/14 09:13:00;;;;;;;17.17;11.40;;;8.30;1.00;;;;;;5021865;28;20231;-61
2022/11/14 09:15:28;;;;;;;18.53;11.70;;;8.20;1.00;;;;;;5032392;28;20210;-62
2022/11/14 09:17:55;;;;;;;17.30;10.97;;;8.20;1.00;;;;;;5033643;28;20210;-62
2022/11/14 09:20:22;;;;;;;18.33;11.70;;;8.10;1.00;;;;;;5033878;28;20288;-61
2022/11/14 09:22:51;;;;;;;19.60;11.97;;;8.10;1.00;;;;;;5033515;28;20578;-62
2022/11/14 09:25:17;;;;;;;19.27;11.73;;;8.10;1.00;;;;;;5033772;28;20289;-63
2022/11/14 09:27:44;;;;;;;20.20;12.20;;;8.10;1.00;;;;;;5033170;28;20669;-63
2022/11/14 09:30:13;;;;;;;19.47;12.50;;;8.10;1.00;;;;;;5033273;28;20993;-62
2022/11/14 09:32:40;;;;;;;20.60;12.67;;;8.10;1.00;;;;;;5032955;28;20234;-63
2022/11/14 09:35:07;;;;;;;22.23;13.43;;;8.20;1.00;;;;;;5033278;28;20595;-62
2022/11/14 09:37:34;;;;;;;20.27;12.13;;;8.20;1.00;;;;;;5032382;28;20210;-62
2022/11/14 09:40:02;;;;;;;23.50;12.57;;;8.20;1.00;;;;;;5032947;28;20698;-66
2022/11/14 09:42:47;;;;;;;21.73;13.43;;;8.20;1.00;;;;;;5039810;28;20233;-61
2022/11/14 09:45:16;;;;;;;23.70;13.53;;;8.30;1.00;;;;;;5052520;28;20668;-62
2022/11/14 09:47:46;;;;;;;26.50;13.17;;;8.10;1.00;;;;;;5052779;28;20300;-61
2022/11/14 09:50:15;;;;;;;19.93;12.90;;;8.20;1.00;;;;;;5052971;28;20647;-62
2022/11/14 09:52:46;;;;;;;21.37;13.00;;;8.10;1.00;;;;;;5054130;28;20655;-65
2022/11/14 09:55:16;;;;;;;23.13;13.63;;;8.00;1.00;;;;;;5052553;28;20209;-64
2022/11/14 09:57:44;;;;;;;24.03;14.27;;;8.10;4.80;;;;;;5052618;28;20210;-64
2022/11/14 10:00:18;;;;;;;22.67;14.43;;;8.00;1.00;;;;;;5052676;28;20230;-64
2022/11/14 10:02:56;;;;;;;24.00;13.10;;;8.00;2.70;;;;;;5053146;28;20234;-61
2022/11/14 10:05:50;;;;;;;24.60;14.00;;;8.00;4.30;;;;;;5052054;28;20213;-62
2022/11/14 10:08:34;;;;;;;23.33;13.03;;;8.00;6.10;;;;;;5017365;28;20214;-62
2022/11/14 10:11:07;;;;;;;24.60;14.63;;;7.90;1.00;;;;;;5052546;28;20221;-63
2022/11/14 10:13:52;;;;;;;23.87;13.50;;;7.90;14.40;;;;;;5052676;28;20777;-63
2022/11/14 10:16:32;;;;;;;24.63;14.23;;;8.00;9.70;;;;;;5051655;28;20272;-62
2022/11/14 10:19:08;;;;;;;22.20;12.87;;;8.00;15.50;;;;;;5052867;28;20229;-63
2022/11/14 10:21:44;;;;;;;22.13;12.20;;;8.00;8.50;;;;;;5052629;28;20284;-62
2022/11/14 10:24:24;;;;;;;18.03;11.97;;;8.20;11.40;;;;;;5051783;28;20632;-63
2022/11/14 10:27:00;;;;;;;20.67;12.23;;;8.20;5.40;;;;;;5051779;28;20209;-63
2022/11/14 10:30:00;;;;;;;19.77;11.73;;;8.20;8.70;;;;;;5052063;28;20676;-62
2022/11/14 10:32:42;;;;;;;18.67;10.77;;;8.30;9.70;;;;;;5052071;28;20225;-61
2022/11/14 10:35:14;;;;;;;19.77;10.90;;;8.40;1.20;;;;;;5051724;28;20244;-61
2022/11/14 10:37:51;;;;;;;17.27;10.43;;;8.40;1.00;;;;;;5052145;28;20588;-62
2022/11/14 10:40:21;;;;;;;19.57;11.07;;;8.50;1.00;;;;;;5051583;28;20226;-62
2022/11/14 10:42:51;;;;;;;18.90;10.90;;;8.50;1.00;;;;;;5052070;28;20471;-60
2022/11/14 10:45:24;;;;;;;18.33;11.03;;;8.50;5.60;;;;;;5050975;28;20303;-60
2022/11/14 10:47:56;;;;;;;17.77;10.67;;;8.60;2.80;;;;;;5051647;28;20214;-65
2022/11/14 10:50:27;;;;;;;19.03;11.20;;;8.60;1.00;;;;;;5051530;28;20206;-59
2022/11/14 10:52:58;;;;;;;19.00;10.77;;;8.60;1.00;;;;;;5052021;28;20237;-63
2022/11/14 10:55:25;;;;;;;22.93;11.67;;;8.70;1.00;;;;;;5051373;28;20217;-62
2022/11/14 10:57:52;;;;;;;20.97;11.57;;;8.70;1.00;;;;;;5051357;28;20596;-59
2022/11/14 11:00:21;;;;;;;17.17;10.30;;;8.70;1.00;;;;;;5051597;28;20226;-62
2022/11/14 11:02:51;;;;;;;20.13;11.43;;;8.70;1.00;;;;;;5051481;28;20229;-62
2022/11/14 11:05:22;;;;;;;22.17;11.97;;;8.60;1.00;;;;;;5051061;28;20201;-62
2022/11/14 11:13:31;;;;;;;18.13;10.60;;;8.60;7.20;;;;;;5051711;28;20339;-59
2022/11/14 11:16:00;;;;;;;20.77;12.57;;;8.60;2.70;;;;;;5051071;28;20640;-61
2022/11/14 11:18:29;;;;;;;17.90;11.23;;;8.70;1.00;;;;;;5051195;28;20205;-61
2022/11/14 11:21:06;;;;;;;18.13;10.77;;;8.70;1.00;;;;;;5051613;28;20233;-60
2022/11/14 11:23:33;;;;;;;21.10;11.30;;;8.80;4.80;;;;;;5050975;28;20233;-63
2022/11/14 11:26:04;;;;;;;21.10;11.67;;;8.90;8.40;;;;;;5050722;28;20291;-63
2022/11/14 11:28:33;;;;;;;18.70;10.47;;;9.00;1.00;;;;;;5051516;28;20677;-62
2022/11/14 11:31:01;;;;;;;15.87;10.30;;;9.10;1.50;;;;;;5051149;28;20339;-61
2022/11/14 11:33:29;;;;;;;16.93;9.90;;;9.20;1.00;;;;;;5051364;28;20240;-61
2022/11/14 11:35:59;;;;;;;18.77;10.27;;;9.30;1.00;;;;;;5049265;28;20206;-64
2022/11/14 11:38:29;;;;;;;18.23;10.53;;;9.30;1.00;;;;;;5050865;28;20242;-61
2022/11/14 11:41:03;;;;;;;19.57;11.27;;;9.40;1.00;;;;;;5050539;28;20233;-60
2022/11/14 11:43:36;;;;;;;20.00;11.73;;;9.30;1.00;;;;;;5051114;28;20230;-61
2022/11/14 11:46:09;;;;;;;16.17;10.37;;;9.40;1.00;;;;;;5050230;28;20213;-62
2022/11/14 11:48:38;;;;;;;17.57;10.83;;;9.40;1.00;;;;;;5051509;28;20218;-60
2022/11/14 11:51:13;;;;;;;20.00;12.50;;;9.30;1.00;;;;;;5051029;28;20201;-61
2022/11/14 11:53:44;;;;;;;19.33;9.63;;;9.30;1.00;;;;;;5051164;28;20227;-60
2022/11/14 11:56:14;;;;;;;16.97;10.23;;;9.40;1.00;;;;;;5050080;28;20210;-61
2022/11/14 11:58:45;;;;;;;20.13;9.47;;;9.50;1.00;;;;;;5050678;28;20657;-63
2022/11/14 12:01:13;;;;;;;14.73;9.30;;;9.50;1.00;;;;;;5051106;28;20228;-61
2022/11/14 12:03:42;;;;;;;15.07;9.97;;;9.40;1.00;;;;;;5050578;28;20274;-63
2022/11/14 12:06:15;;;;;;;16.17;9.87;;;9.40;1.00;;;;;;5050322;28;20263;-62
2022/11/14 12:08:51;;;;;;;17.60;9.50;;;9.30;1.00;;;;;;5050611;28;20202;-65
2022/11/14 12:11:22;;;;;;;16.03;9.33;;;9.30;1.00;;;;;;5051162;28;20647;-65
2022/11/14 12:14:19;;;;;;;16.60;9.63;;;9.40;1.00;;;;;;5050280;28;20231;-61
2022/11/14 12:17:19;;;;;;;13.60;8.37;;;9.30;1.00;;;;;;5028579;28;20215;-62
2022/11/14 12:20:13;;;;;;;15.13;8.17;;;9.30;1.00;;;;;;5030093;28;20707;-61
2022/11/14 12:23:12;;;;;;;12.97;8.57;;;9.30;1.00;;;;;;5030847;28;20292;-63
2022/11/14 12:25:48;;;;;;;17.43;8.97;;;9.40;6.00;;;;;;5029740;28;20216;-63
2022/11/14 12:28:34;;;;;;;12.93;8.80;;;9.60;2.00;;;;;;5030755;28;20219;-64
2022/11/14 12:31:04;;;;;;;11.83;8.20;;;9.60;1.00;;;;;;5030576;28;20202;-65
2022/11/14 12:33:33;;;;;;;13.90;8.13;;;9.60;1.00;;;;;;5030215;28;20790;-61
2022/11/14 12:36:04;;;;;;;15.23;8.63;;;9.70;1.00;;;;;;5027478;28;20212;-64
2022/11/14 12:38:41;;;;;;;12.27;8.03;;;9.70;1.00;;;;;;5030905;28;20268;-66
2022/11/14 12:41:10;;;;;;;11.63;7.47;;;9.80;1.00;;;;;;5030192;28;20232;-65
2022/11/14 12:43:40;;;;;;;11.93;7.97;;;9.70;1.00;;;;;;5030233;28;20582;-64
2022/11/14 12:46:08;;;;;;;11.33;7.80;;;9.70;1.00;;;;;;5029777;28;20207;-64
2022/11/14 12:48:37;;;;;;;12.90;8.50;;;9.80;1.00;;;;;;5030460;28;20240;-63
2022/11/14 12:51:05;;;;;;;12.53;7.63;;;9.80;1.00;;;;;;5036340;28;20210;-61
2022/11/14 12:53:41;;;;;;;12.10;8.00;;;9.80;1.00;;;;;;5053443;28;20233;-62
2022/11/14 12:56:36;;;;;;;13.47;7.60;;;9.80;1.00;;;;;;5053671;28;20218;-63
2022/11/14 12:59:41;;;;;;;11.83;7.40;;;9.70;1.00;;;;;;5053948;28;20265;-61
2022/11/14 13:02:38;;;;;;;13.17;7.87;;;9.70;1.00;;;;;;4973066;28;20214;-61
2022/11/14 13:05:27;;;;;;;12.53;7.27;;;9.80;1.00;;;;;;5017558;28;20316;-63
2022/11/14 13:08:07;;;;;;;11.40;7.57;;;9.80;6.30;;;;;;5053940;28;20263;-62